Time;durP1;ratioP1;P1;durP2;ratioP2;P2;SDS_P1;SDS_P2;PMS_P1;PMS_P2;Temp;Humidity;BMP_temperature;BMP_pressure;BME280_temperature;BME280_humidity;BME280_pressure;Samples;Min_cycle;Max_cycle;Signal;HPM_P1;HPM_P2
2022/11/01 00:01:12;;;;;;;0.00;0.00;;;;;;;;;;4978801;28;20220;-69
2022/11/01 00:03:40;;;;;;;0.00;0.00;;;;;;;;;;5001992;28;20204;-68
2022/11/01 00:06:08;;;;;;;0.00;0.00;;;;;;;;;;5003516;28;20658;-69
2022/11/01 00:08:35;;;;;;;0.00;0.00;;;;;;;;;;4978589;28;20255;-68
2022/11/01 00:11:04;;;;;;;0.00;0.00;;;;;;;;;;4974629;28;20260;-69
2022/11/01 00:13:31;;;;;;;0.00;0.00;;;;;;;;;;5002086;28;20205;-69
2022/11/01 00:15:59;;;;;;;0.00;0.00;;;;;;;;;;4993873;28;20315;-69
2022/11/01 00:18:26;;;;;;;0.00;0.00;;;;;;;;;;4976008;28;20197;-69
2022/11/01 00:20:55;;;;;;;0.00;0.00;;;;;;;;;;5003303;28;20221;-69
2022/11/01 00:23:23;;;;;;;0.00;0.00;;;;;;;;;;4985776;28;20756;-70
2022/11/01 00:25:50;;;;;;;0.00;0.00;;;;;;;;;;5001787;28;20193;-68
2022/11/01 00:28:18;;;;;;;0.00;0.00;;;;;;;;;;4978302;28;20716;-68
2022/11/01 00:30:45;;;;;;;0.00;0.00;;;;;;;;;;4978983;28;20209;-69
2022/11/01 00:33:12;;;;;;;0.00;0.00;;;;;;;;;;4999727;28;20247;-68
2022/11/01 00:35:40;;;;;;;0.00;0.00;;;;;;;;;;4994627;28;20319;-69
2022/11/01 00:38:09;;;;;;;0.00;0.00;;;;;;;;;;4979124;28;20274;-69
2022/11/01 00:40:37;;;;;;;0.00;0.00;;;;;;;;;;5000940;28;20201;-70
2022/11/01 00:43:05;;;;;;;0.00;0.00;;;;;;;;;;4976062;28;20772;-68
2022/11/01 00:45:32;;;;;;;0.00;0.00;;;;;;;;;;4976496;28;20212;-68
2022/11/01 00:48:00;;;;;;;0.00;0.00;;;;;;;;;;4977154;28;20203;-68
2022/11/01 00:50:27;;;;;;;0.00;0.00;;;;;;;;;;4977663;28;20215;-69
2022/11/01 00:52:55;;;;;;;0.00;0.00;;;;;;;;;;4980288;28;20220;-68
2022/11/01 00:55:24;;;;;;;0.00;0.00;;;;;;;;;;4978344;28;20217;-68
2022/11/01 00:57:52;;;;;;;0.00;0.00;;;;;;;;;;4975664;28;20255;-69
2022/11/01 01:00:19;;;;;;;0.00;0.00;;;;;;;;;;5002293;28;20201;-68
2022/11/01 01:02:47;;;;;;;0.00;0.00;;;;;;;;;;4976508;28;20317;-68
2022/11/01 01:05:14;;;;;;;0.00;0.00;;;;;;;;;;4977748;28;20196;-68
2022/11/01 01:07:42;;;;;;;0.00;0.00;;;;;;;;;;4976212;28;20307;-68
2022/11/01 01:10:10;;;;;;;0.00;0.00;;;;;;;;;;4979305;28;20213;-70
2022/11/01 01:12:39;;;;;;;0.00;0.00;;;;;;;;;;5000057;28;20697;-68
2022/11/01 01:15:07;;;;;;;0.00;0.00;;;;;;;;;;4977981;28;20705;-69
2022/11/01 01:17:34;;;;;;;0.00;0.00;;;;;;;;;;4974495;28;20205;-68
2022/11/01 01:20:02;;;;;;;0.00;0.00;;;;;;;;;;4978503;28;20199;-68
2022/11/01 01:22:29;;;;;;;0.00;0.00;;;;;;;;;;5000117;28;20220;-69
2022/11/01 01:24:57;;;;;;;0.00;0.00;;;;;;;;;;5001930;28;20204;-68
2022/11/01 01:27:24;;;;;;;0.00;0.00;;;;;;;;;;4992024;28;20216;-68
2022/11/01 01:29:53;;;;;;;0.00;0.00;;;;;;;;;;4999637;28;20220;-68
2022/11/01 01:32:21;;;;;;;0.00;0.00;;;;;;;;;;4979272;28;20235;-69
2022/11/01 01:34:49;;;;;;;0.00;0.00;;;;;;;;;;4998552;28;20209;-68
2022/11/01 01:37:17;;;;;;;0.00;0.00;;;;;;;;;;5002695;28;20209;-68
2022/11/01 01:39:44;;;;;;;0.00;0.00;;;;;;;;;;5001031;28;20241;-69
2022/11/01 01:42:16;;;;;;;0.00;0.00;;;;;;;;;;4976059;28;20224;-68
2022/11/01 01:44:58;;;;;;;0.00;0.00;;;;;;;;;;4975185;28;20244;-69
2022/11/01 01:47:28;;;;;;;0.00;0.00;;;;;;;;;;4975883;28;20200;-68
2022/11/01 01:49:57;;;;;;;0.00;0.00;;;;;;;;;;4974807;28;20216;-68
2022/11/01 01:52:25;;;;;;;0.00;0.00;;;;;;;;;;4978036;28;20225;-69
2022/11/01 01:54:52;;;;;;;0.00;0.00;;;;;;;;;;4973547;28;20212;-68
2022/11/01 01:57:20;;;;;;;0.00;0.00;;;;;;;;;;4977392;28;20211;-69
2022/11/01 01:59:48;;;;;;;0.00;0.00;;;;;;;;;;4974624;28;20205;-69
2022/11/01 02:02:18;;;;;;;0.00;0.00;;;;;;;;;;4979016;28;20225;-69
2022/11/01 02:04:49;;;;;;;0.00;0.00;;;;;;;;;;4989328;28;20701;-70
2022/11/01 02:07:16;;;;;;;0.00;0.00;;;;;;;;;;4975023;28;20205;-69
2022/11/01 02:09:43;;;;;;;0.00;0.00;;;;;;;;;;4999806;28;20211;-68
2022/11/01 02:12:11;;;;;;;0.00;0.00;;;;;;;;;;5000082;28;20311;-68
2022/11/01 02:14:41;;;;;;;0.00;0.00;;;;;;;;;;4977201;28;20205;-68
2022/11/01 02:17:11;;;;;;;0.00;0.00;;;;;;;;;;5000235;28;20266;-69
2022/11/01 02:20:05;;;;;;;0.00;0.00;;;;;;;;;;4977760;28;20204;-68
2022/11/01 02:22:49;;;;;;;0.10;0.10;;;;;;;;;;4941751;28;20228;-68
2022/11/01 02:25:31;;;;;;;0.00;0.00;;;;;;;;;;4997399;28;20212;-69
2022/11/01 02:28:05;;;;;;;0.00;0.00;;;;;;;;;;4976242;28;20197;-67
2022/11/01 02:30:39;;;;;;;0.00;0.00;;;;;;;;;;5000031;28;20327;-69
2022/11/01 02:33:14;;;;;;;0.00;0.00;;;;;;;;;;4974600;28;20297;-69
2022/11/01 02:35:48;;;;;;;0.00;0.00;;;;;;;;;;4974281;28;20350;-69
2022/11/01 02:38:20;;;;;;;0.10;0.10;;;;;;;;;;4999803;28;20197;-68
2022/11/01 02:40:53;;;;;;;0.10;0.10;;;;;;;;;;4978805;28;20211;-69
2022/11/01 02:43:23;;;;;;;0.00;0.00;;;;;;;;;;4972053;28;20261;-68
2022/11/01 02:45:51;;;;;;;0.13;0.13;;;;;;;;;;4973968;28;20208;-69
2022/11/01 02:48:20;;;;;;;0.00;0.00;;;;;;;;;;4974126;28;20208;-69
2022/11/01 02:50:51;;;;;;;0.10;0.10;;;;;;;;;;4999001;28;20264;-69
2022/11/01 02:53:18;;;;;;;0.10;0.10;;;;;;;;;;4976765;28;20200;-69
2022/11/01 02:55:46;;;;;;;0.00;0.00;;;;;;;;;;5000419;28;20224;-68
2022/11/01 02:58:15;;;;;;;0.00;0.00;;;;;;;;;;5001763;28;20212;-68
2022/11/01 03:00:44;;;;;;;0.10;0.10;;;;;;;;;;4979412;28;20266;-68
2022/11/01 03:03:17;;;;;;;0.10;0.10;;;;;;;;;;4979454;28;20649;-68
2022/11/01 03:05:53;;;;;;;0.00;0.00;;;;;;;;;;5001943;28;20583;-68
2022/11/01 03:08:23;;;;;;;0.10;0.10;;;;;;;;;;4980610;28;20204;-68
2022/11/01 03:10:53;;;;;;;0.10;0.10;;;;;;;;;;5002494;28;20216;-67
2022/11/01 03:13:28;;;;;;;0.00;0.00;;;;;;;;;;5003666;28;20200;-68
2022/11/01 03:15:59;;;;;;;0.00;0.00;;;;;;;;;;4976751;28;20414;-69
2022/11/01 03:18:29;;;;;;;0.10;0.10;;;;;;;;;;5001809;28;20694;-68
2022/11/01 03:21:00;;;;;;;0.10;0.10;;;;;;;;;;4996221;28;20209;-68
2022/11/01 03:23:30;;;;;;;0.00;0.00;;;;;;;;;;4975808;28;20208;-68
2022/11/01 03:25:59;;;;;;;0.00;0.00;;;;;;;;;;4995586;28;20201;-67
2022/11/01 03:28:31;;;;;;;0.10;0.10;;;;;;;;;;4978911;28;20201;-68
2022/11/01 03:31:01;;;;;;;0.00;0.00;;;;;;;;;;5003823;28;20700;-68
2022/11/01 03:33:30;;;;;;;0.10;0.10;;;;;;;;;;4977443;28;20209;-69
2022/11/01 03:36:02;;;;;;;0.00;0.00;;;;;;;;;;5003603;28;20217;-68
2022/11/01 03:38:34;;;;;;;0.00;0.00;;;;;;;;;;4981464;28;20200;-68
2022/11/01 03:41:03;;;;;;;0.10;0.10;;;;;;;;;;5002184;28;20232;-68
2022/11/01 03:43:32;;;;;;;0.10;0.10;;;;;;;;;;4978327;28;20197;-68
2022/11/01 03:45:59;;;;;;;0.00;0.00;;;;;;;;;;4996893;28;20251;-69
2022/11/01 03:48:27;;;;;;;0.10;0.10;;;;;;;;;;5003009;28;20203;-69
2022/11/01 03:50:55;;;;;;;0.10;0.10;;;;;;;;;;5003224;28;20205;-68
2022/11/01 03:53:25;;;;;;;0.10;0.10;;;;;;;;;;4980847;28;20201;-69
2022/11/01 03:55:52;;;;;;;0.10;0.10;;;;;;;;;;5003443;28;20223;-68
2022/11/01 03:58:20;;;;;;;0.10;0.10;;;;;;;;;;5000837;28;20284;-67
2022/11/01 04:00:47;;;;;;;0.10;0.10;;;;;;;;;;4978023;28;20216;-68
2022/11/01 04:03:15;;;;;;;0.00;0.00;;;;;;;;;;5003619;28;20658;-69
2022/11/01 04:05:43;;;;;;;0.00;0.00;;;;;;;;;;5000635;28;20201;-69
2022/11/01 04:08:11;;;;;;;0.10;0.10;;;;;;;;;;4977917;28;20243;-69
2022/11/01 04:10:40;;;;;;;0.10;0.10;;;;;;;;;;5000908;28;20382;-68
2022/11/01 04:13:08;;;;;;;0.10;0.10;;;;;;;;;;5003105;28;20251;-67
2022/11/01 04:21:08;;;;;;;0.10;0.10;;;;;;;;;;5002268;28;20247;-69
2022/11/01 04:23:35;;;;;;;0.00;0.00;;;;;;;;;;5000328;28;20292;-68
2022/11/01 04:26:05;;;;;;;0.10;0.10;;;;;;;;;;4975842;28;20201;-68
2022/11/01 04:28:32;;;;;;;0.10;0.10;;;;;;;;;;5001452;28;20287;-68
2022/11/01 04:31:00;;;;;;;0.00;0.00;;;;;;;;;;5016231;28;20580;-68
2022/11/01 04:33:27;;;;;;;0.00;0.00;;;;;;;;;;5002969;28;20285;-68
2022/11/01 04:35:54;;;;;;;0.10;0.10;;;;;;;;;;4976268;28;20209;-69
2022/11/01 04:38:22;;;;;;;0.10;0.10;;;;;;;;;;4976622;28;20200;-68
2022/11/01 04:40:50;;;;;;;0.10;0.10;;;;;;;;;;4979080;28;20272;-68
2022/11/01 04:43:18;;;;;;;0.00;0.00;;;;;;;;;;5002968;28;20263;-68
2022/11/01 04:45:54;;;;;;;0.10;0.10;;;;;;;;;;5002098;28;20216;-69
2022/11/01 04:48:21;;;;;;;0.00;0.00;;;;;;;;;;4979073;28;20221;-69
2022/11/01 04:50:48;;;;;;;0.00;0.00;;;;;;;;;;4993569;28;20214;-68
2022/11/01 04:53:16;;;;;;;0.00;0.00;;;;;;;;;;4977761;28;20203;-68
2022/11/01 04:55:44;;;;;;;0.00;0.00;;;;;;;;;;5000579;28;20259;-69
2022/11/01 04:58:13;;;;;;;0.00;0.00;;;;;;;;;;4979117;28;20224;-68
2022/11/01 05:00:42;;;;;;;0.00;0.00;;;;;;;;;;4977082;28;20204;-68
2022/11/01 05:03:11;;;;;;;0.00;0.00;;;;;;;;;;4998204;28;20200;-69
2022/11/01 05:05:38;;;;;;;0.00;0.00;;;;;;;;;;4977281;28;20211;-68
2022/11/01 05:08:06;;;;;;;0.10;0.10;;;;;;;;;;4977297;28;20197;-69
2022/11/01 05:10:34;;;;;;;0.00;0.00;;;;;;;;;;4999664;28;20239;-70
2022/11/01 05:13:02;;;;;;;0.00;0.00;;;;;;;;;;4981023;28;20236;-69
2022/11/01 05:15:29;;;;;;;0.10;0.10;;;;;;;;;;4976173;28;20296;-69
2022/11/01 05:17:58;;;;;;;0.00;0.00;;;;;;;;;;4977105;28;20212;-68
2022/11/01 05:20:26;;;;;;;0.00;0.00;;;;;;;;;;5000129;28;20647;-68
2022/11/01 05:22:57;;;;;;;0.00;0.00;;;;;;;;;;5003476;28;20227;-69
2022/11/01 05:25:25;;;;;;;0.10;0.10;;;;;;;;;;5001629;28;20574;-69
2022/11/01 05:27:52;;;;;;;0.00;0.00;;;;;;;;;;4997458;28;20208;-70
2022/11/01 05:30:20;;;;;;;0.00;0.00;;;;;;;;;;5002429;28;20264;-70
2022/11/01 05:32:47;;;;;;;0.03;0.03;;;;;;;;;;5001793;28;20248;-69
2022/11/01 05:35:16;;;;;;;0.00;0.00;;;;;;;;;;4996888;28;20303;-71
2022/11/01 05:37:44;;;;;;;0.00;0.00;;;;;;;;;;4975630;28;20233;-69
2022/11/01 05:40:12;;;;;;;0.00;0.00;;;;;;;;;;4993286;28;20205;-69
2022/11/01 05:42:39;;;;;;;0.00;0.00;;;;;;;;;;5000132;28;20228;-69
2022/11/01 05:45:08;;;;;;;0.00;0.00;;;;;;;;;;5001401;28;20200;-70
2022/11/01 05:47:39;;;;;;;0.00;0.00;;;;;;;;;;5001777;28;20250;-69
2022/11/01 05:50:07;;;;;;;0.00;0.00;;;;;;;;;;5002070;28;20193;-69
2022/11/01 05:52:36;;;;;;;0.00;0.00;;;;;;;;;;4973928;28;20740;-69
2022/11/01 05:55:04;;;;;;;0.00;0.00;;;;;;;;;;4978290;28;20205;-69
2022/11/01 05:57:32;;;;;;;0.00;0.00;;;;;;;;;;5001723;28;20224;-69
2022/11/01 06:00:01;;;;;;;0.00;0.00;;;;;;;;;;4993677;28;20200;-70
2022/11/01 06:02:31;;;;;;;0.00;0.00;;;;;;;;;;5001054;28;20221;-68
2022/11/01 06:04:59;;;;;;;0.00;0.00;;;;;;;;;;5013990;28;20197;-70
2022/11/01 06:07:26;;;;;;;0.00;0.00;;;;;;;;;;4976052;28;20205;-69
2022/11/01 06:09:56;;;;;;;0.00;0.00;;;;;;;;;;5014036;28;20299;-69
2022/11/01 06:12:24;;;;;;;0.00;0.00;;;;;;;;;;5002686;28;20228;-70
2022/11/01 06:14:52;;;;;;;0.00;0.00;;;;;;;;;;5001826;28;20294;-68
2022/11/01 06:17:20;;;;;;;0.00;0.00;;;;;;;;;;5000835;28;20229;-70
2022/11/01 06:19:47;;;;;;;0.00;0.00;;;;;;;;;;4992220;28;20204;-70
2022/11/01 06:22:15;;;;;;;0.00;0.00;;;;;;;;;;4994392;28;20228;-72
2022/11/01 06:24:42;;;;;;;0.00;0.00;;;;;;;;;;4999666;28;20211;-73
2022/11/01 06:27:33;;;;;;;0.00;0.00;;;;;;;;;;5002049;28;20216;-73
2022/11/01 06:30:01;;;;;;;0.00;0.00;;;;;;;;;;4993214;28;20559;-72
2022/11/01 06:32:29;;;;;;;0.00;0.00;;;;;;;;;;4976506;28;20228;-70
2022/11/01 06:34:56;;;;;;;0.00;0.00;;;;;;;;;;5002098;28;20212;-69
2022/11/01 06:37:24;;;;;;;0.00;0.00;;;;;;;;;;5000676;28;20322;-71
2022/11/01 06:39:51;;;;;;;0.00;0.00;;;;;;;;;;4977784;28;20197;-72
2022/11/01 06:42:19;;;;;;;0.07;0.07;;;;;;;;;;4976721;28;20240;-70
2022/11/01 06:44:48;;;;;;;0.00;0.00;;;;;;;;;;4995763;28;20239;-73
2022/11/01 06:47:15;;;;;;;0.00;0.00;;;;;;;;;;4976482;28;20201;-72
2022/11/01 06:49:42;;;;;;;0.00;0.00;;;;;;;;;;4996650;28;20578;-74
2022/11/01 06:52:10;;;;;;;0.00;0.00;;;;;;;;;;4975152;28;20224;-73
2022/11/01 06:54:38;;;;;;;0.00;0.00;;;;;;;;;;4999123;28;20204;-73
2022/11/01 06:57:05;;;;;;;0.00;0.00;;;;;;;;;;4976939;28;20294;-74
2022/11/01 06:59:33;;;;;;;0.00;0.00;;;;;;;;;;4999686;28;20215;-73
2022/11/01 07:02:01;;;;;;;0.00;0.00;;;;;;;;;;5015852;28;20236;-73
2022/11/01 07:04:30;;;;;;;0.00;0.00;;;;;;;;;;4975976;28;20204;-73
2022/11/01 07:06:58;;;;;;;0.00;0.00;;;;;;;;;;4997028;28;20201;-72
2022/11/01 07:09:26;;;;;;;0.00;0.00;;;;;;;;;;4977045;28;20200;-71
2022/11/01 07:11:53;;;;;;;0.00;0.00;;;;;;;;;;4990426;28;20225;-72
2022/11/01 07:14:21;;;;;;;0.00;0.00;;;;;;;;;;4971105;28;20215;-70
2022/11/01 07:16:48;;;;;;;0.00;0.00;;;;;;;;;;4978936;28;20222;-70
2022/11/01 07:19:17;;;;;;;0.00;0.00;;;;;;;;;;4999149;28;20205;-71
2022/11/01 07:21:44;;;;;;;0.00;0.00;;;;;;;;;;4996999;28;20239;-71
2022/11/01 07:24:12;;;;;;;0.00;0.00;;;;;;;;;;4976048;28;20244;-72
2022/11/01 07:26:39;;;;;;;0.00;0.00;;;;;;;;;;4997727;28;20220;-71
2022/11/01 07:29:07;;;;;;;0.03;0.03;;;;;;;;;;4994007;28;20300;-71
2022/11/01 07:31:36;;;;;;;0.00;0.00;;;;;;;;;;4980658;28;20221;-72
2022/11/01 07:34:04;;;;;;;0.00;0.00;;;;;;;;;;4998671;28;20226;-71
2022/11/01 07:36:33;;;;;;;0.00;0.00;;;;;;;;;;4997024;28;20263;-71
2022/11/01 07:39:00;;;;;;;0.00;0.00;;;;;;;;;;4975029;28;20197;-70
2022/11/01 07:41:27;;;;;;;0.10;0.10;;;;;;;;;;5002153;28;20244;-69
2022/11/01 07:43:55;;;;;;;0.10;0.10;;;;;;;;;;4995258;28;20263;-72
2022/11/01 07:46:23;;;;;;;0.00;0.00;;;;;;;;;;4978431;28;20291;-69
2022/11/01 07:48:50;;;;;;;0.00;0.00;;;;;;;;;;5003588;28;20198;-71
2022/11/01 07:51:18;;;;;;;0.00;0.00;;;;;;;;;;4979158;28;20228;-70
2022/11/01 07:53:48;;;;;;;0.00;0.00;;;;;;;;;;4978251;28;20200;-70
2022/11/01 07:56:15;;;;;;;0.00;0.00;;;;;;;;;;5002972;28;20308;-72
2022/11/01 07:58:43;;;;;;;0.00;0.00;;;;;;;;;;4979504;28;20213;-70
2022/11/01 08:01:10;;;;;;;0.00;0.00;;;;;;;;;;5004423;28;20217;-71
2022/11/01 08:03:38;;;;;;;0.00;0.00;;;;;;;;;;4994734;28;20737;-72
2022/11/01 08:06:06;;;;;;;0.00;0.00;;;;;;;;;;5003763;28;20221;-71
2022/11/01 08:08:34;;;;;;;0.00;0.00;;;;;;;;;;4982857;28;20255;-71
2022/11/01 08:11:03;;;;;;;0.00;0.00;;;;;;;;;;5004314;28;20225;-71
2022/11/01 08:13:30;;;;;;;0.00;0.00;;;;;;;;;;5002990;28;20284;-71
2022/11/01 08:16:01;;;;;;;0.00;0.00;;;;;;;;;;5003678;28;20197;-71
2022/11/01 08:18:28;;;;;;;0.00;0.00;;;;;;;;;;4979315;28;20225;-71
2022/11/01 08:20:57;;;;;;;0.00;0.00;;;;;;;;;;5003142;28;20199;-71
2022/11/01 08:23:25;;;;;;;0.00;0.00;;;;;;;;;;5004345;28;20216;-70
2022/11/01 08:25:52;;;;;;;0.00;0.00;;;;;;;;;;4997788;28;20208;-70
2022/11/01 08:28:22;;;;;;;0.00;0.00;;;;;;;;;;4978684;28;20678;-71
2022/11/01 08:30:51;;;;;;;0.00;0.00;;;;;;;;;;4978531;28;20197;-71
2022/11/01 08:33:19;;;;;;;0.00;0.00;;;;;;;;;;4976179;28;20212;-71
2022/11/01 08:35:46;;;;;;;0.00;0.00;;;;;;;;;;5002820;28;20209;-71
2022/11/01 08:38:14;;;;;;;0.00;0.00;;;;;;;;;;5004744;28;20223;-72
2022/11/01 08:40:41;;;;;;;0.00;0.00;;;;;;;;;;4979995;28;20236;-71
2022/11/01 08:43:09;;;;;;;0.00;0.00;;;;;;;;;;4980911;28;20201;-72
2022/11/01 08:45:39;;;;;;;0.00;0.00;;;;;;;;;;5004051;28;20223;-71
2022/11/01 08:48:07;;;;;;;0.00;0.00;;;;;;;;;;5005440;28;20185;-72
2022/11/01 08:50:37;;;;;;;0.00;0.00;;;;;;;;;;5005709;28;20205;-71
2022/11/01 08:53:05;;;;;;;0.00;0.00;;;;;;;;;;5001252;28;20225;-69
2022/11/01 08:55:32;;;;;;;0.00;0.00;;;;;;;;;;4978731;28;20205;-70
2022/11/01 08:58:01;;;;;;;0.00;0.00;;;;;;;;;;4979430;28;20224;-71
2022/11/01 09:00:28;;;;;;;0.00;0.00;;;;;;;;;;4981211;28;20612;-71
2022/11/01 09:02:57;;;;;;;0.00;0.00;;;;;;;;;;5002176;28;20228;-70
2022/11/01 09:05:24;;;;;;;0.00;0.00;;;;;;;;;;5002602;28;20674;-72
2022/11/01 09:07:56;;;;;;;0.00;0.00;;;;;;;;;;4993757;28;20212;-72
2022/11/01 09:10:24;;;;;;;0.00;0.00;;;;;;;;;;5002681;28;20298;-72
2022/11/01 09:12:52;;;;;;;0.00;0.00;;;;;;;;;;5002311;28;20227;-70
2022/11/01 09:15:20;;;;;;;0.00;0.00;;;;;;;;;;5001395;28;20205;-70
2022/11/01 09:17:47;;;;;;;0.00;0.00;;;;;;;;;;5002763;28;20216;-70
2022/11/01 09:20:17;;;;;;;0.00;0.00;;;;;;;;;;5000835;28;20677;-71
2022/11/01 09:22:45;;;;;;;0.00;0.00;;;;;;;;;;5001040;28;20228;-71
2022/11/01 09:25:12;;;;;;;0.00;0.00;;;;;;;;;;5000166;28;20204;-71
2022/11/01 09:27:40;;;;;;;0.00;0.00;;;;;;;;;;5002495;28;20209;-72
2022/11/01 09:30:08;;;;;;;0.00;0.00;;;;;;;;;;5002057;28;20435;-72
2022/11/01 09:32:35;;;;;;;0.00;0.00;;;;;;;;;;5003342;28;20252;-71
2022/11/01 09:35:02;;;;;;;0.00;0.00;;;;;;;;;;4993794;28;20213;-71
2022/11/01 09:37:32;;;;;;;0.00;0.00;;;;;;;;;;4996579;28;20307;-71
2022/11/01 09:39:59;;;;;;;0.00;0.00;;;;;;;;;;5004031;28;20284;-71
2022/11/01 09:42:31;;;;;;;0.00;0.00;;;;;;;;;;5000837;28;20227;-73
2022/11/01 09:45:01;;;;;;;0.00;0.00;;;;;;;;;;5003831;28;20270;-72
2022/11/01 09:47:32;;;;;;;0.00;0.00;;;;;;;;;;4981234;28;20205;-72
2022/11/01 09:50:03;;;;;;;0.00;0.00;;;;;;;;;;4996698;28;20331;-72
2022/11/01 09:52:32;;;;;;;0.00;0.00;;;;;;;;;;5002446;28;20224;-72
2022/11/01 09:55:01;;;;;;;0.00;0.00;;;;;;;;;;5015438;28;20200;-71
2022/11/01 09:57:32;;;;;;;0.00;0.00;;;;;;;;;;4974279;28;20208;-72
2022/11/01 10:00:13;;;;;;;0.00;0.00;;;;;;;;;;5000196;28;20213;-71
2022/11/01 10:02:59;;;;;;;0.00;0.00;;;;;;;;;;4975474;28;20232;-71
2022/11/01 10:05:32;;;;;;;0.00;0.00;;;;;;;;;;4978404;28;20213;-71
2022/11/01 10:08:05;;;;;;;0.00;0.00;;;;;;;;;;5003775;28;20188;-71
2022/11/01 10:10:38;;;;;;;0.00;0.00;;;;;;;;;;4978438;28;20204;-72
2022/11/01 10:13:17;;;;;;;0.00;0.00;;;;;;;;;;4981581;28;20263;-71
2022/11/01 10:15:51;;;;;;;0.00;0.00;;;;;;;;;;4976636;28;20196;-71
2022/11/01 10:18:25;;;;;;;0.00;0.00;;;;;;;;;;4976916;28;20584;-71
2022/11/01 10:20:53;;;;;;;0.00;0.00;;;;;;;;;;4978720;28;20205;-71
2022/11/01 10:23:25;;;;;;;0.00;0.00;;;;;;;;;;5002479;28;20239;-72
2022/11/01 10:25:53;;;;;;;0.00;0.00;;;;;;;;;;5002300;28;20304;-72
2022/11/01 10:28:23;;;;;;;0.00;0.00;;;;;;;;;;5002153;28;20207;-71
2022/11/01 10:30:52;;;;;;;0.00;0.00;;;;;;;;;;5001312;28;20295;-71
2022/11/01 10:33:23;;;;;;;0.00;0.00;;;;;;;;;;4998410;28;20213;-71
2022/11/01 10:35:52;;;;;;;0.00;0.00;;;;;;;;;;5000923;28;20292;-72
2022/11/01 10:38:24;;;;;;;0.00;0.00;;;;;;;;;;5001911;28;20228;-71
2022/11/01 10:40:53;;;;;;;0.00;0.00;;;;;;;;;;4980268;28;20311;-71
2022/11/01 10:43:23;;;;;;;0.00;0.00;;;;;;;;;;5001102;28;20211;-70
2022/11/01 10:45:52;;;;;;;0.00;0.00;;;;;;;;;;4980003;28;20205;-70
2022/11/01 10:48:27;;;;;;;0.00;0.00;;;;;;;;;;4997269;28;20201;-71
2022/11/01 10:50:55;;;;;;;0.00;0.00;;;;;;;;;;4994666;28;20579;-72
2022/11/01 10:53:26;;;;;;;0.00;0.00;;;;;;;;;;4976954;28;20208;-73
2022/11/01 10:55:56;;;;;;;0.00;0.00;;;;;;;;;;5001790;28;20200;-73
2022/11/01 10:58:30;;;;;;;0.00;0.00;;;;;;;;;;4977065;28;20218;-72
2022/11/01 11:00:58;;;;;;;0.00;0.00;;;;;;;;;;4976416;28;20210;-73
2022/11/01 11:03:29;;;;;;;0.00;0.00;;;;;;;;;;4975783;28;20207;-71
2022/11/01 11:05:59;;;;;;;0.00;0.00;;;;;;;;;;4997383;28;20331;-72
2022/11/01 11:08:28;;;;;;;0.00;0.00;;;;;;;;;;4976299;28;20198;-72
2022/11/01 11:10:56;;;;;;;0.00;0.00;;;;;;;;;;4976736;28;20209;-71
2022/11/01 11:13:26;;;;;;;0.00;0.00;;;;;;;;;;4973569;28;20224;-71
2022/11/01 11:15:54;;;;;;;0.00;0.00;;;;;;;;;;4983632;28;20201;-71
2022/11/01 11:18:25;;;;;;;0.00;0.00;;;;;;;;;;4981018;28;20251;-71
2022/11/01 11:20:53;;;;;;;0.00;0.00;;;;;;;;;;4996757;28;20194;-71
2022/11/01 11:23:22;;;;;;;0.00;0.00;;;;;;;;;;4981088;28;20275;-71
2022/11/01 11:25:51;;;;;;;0.00;0.00;;;;;;;;;;5004603;28;20578;-71
2022/11/01 11:28:23;;;;;;;0.00;0.00;;;;;;;;;;5005957;28;20196;-71
2022/11/01 11:30:51;;;;;;;0.00;0.00;;;;;;;;;;4995086;28;20208;-70
2022/11/01 11:33:19;;;;;;;0.00;0.00;;;;;;;;;;5004025;28;20196;-73
2022/11/01 11:35:54;;;;;;;0.00;0.00;;;;;;;;;;5003792;28;20201;-73
2022/11/01 11:38:40;;;;;;;0.00;0.00;;;;;;;;;;4981239;28;20243;-72
2022/11/01 11:41:11;;;;;;;0.00;0.00;;;;;;;;;;4979953;28;20228;-70
2022/11/01 11:43:40;;;;;;;0.00;0.00;;;;;;;;;;5005108;28;20216;-70
2022/11/01 11:46:13;;;;;;;0.00;0.00;;;;;;;;;;4997363;28;20208;-72
2022/11/01 11:48:47;;;;;;;0.00;0.00;;;;;;;;;;4979068;28;20205;-71
2022/11/01 11:51:14;;;;;;;0.00;0.00;;;;;;;;;;5001283;28;20228;-71
2022/11/01 11:53:42;;;;;;;0.00;0.00;;;;;;;;;;4975074;28;20216;-71
2022/11/01 11:56:12;;;;;;;0.00;0.00;;;;;;;;;;5005560;28;20212;-71
2022/11/01 11:58:42;;;;;;;0.00;0.00;;;;;;;;;;4980451;28;20220;-70
2022/11/01 12:01:11;;;;;;;0.00;0.00;;;;;;;;;;5004439;28;20299;-71
2022/11/01 12:03:44;;;;;;;0.00;0.00;;;;;;;;;;4979153;28;20245;-71
2022/11/01 12:06:16;;;;;;;0.00;0.00;;;;;;;;;;5003898;28;20215;-71
2022/11/01 12:08:46;;;;;;;0.00;0.00;;;;;;;;;;4978603;28;20196;-71
2022/11/01 12:11:16;;;;;;;0.00;0.00;;;;;;;;;;5004629;28;20216;-72
2022/11/01 12:13:45;;;;;;;0.00;0.00;;;;;;;;;;5003026;28;20224;-70
2022/11/01 12:16:16;;;;;;;0.00;0.00;;;;;;;;;;4980326;28;20205;-70
2022/11/01 12:18:53;;;;;;;0.00;0.00;;;;;;;;;;4976558;28;20266;-70
2022/11/01 12:21:25;;;;;;;0.00;0.00;;;;;;;;;;4981095;28;20223;-70
2022/11/01 12:23:54;;;;;;;0.00;0.00;;;;;;;;;;4982752;28;20290;-71
2022/11/01 12:26:24;;;;;;;0.00;0.00;;;;;;;;;;5004482;28;20265;-70
2022/11/01 12:28:56;;;;;;;0.00;0.00;;;;;;;;;;5015204;28;20281;-70
2022/11/01 12:31:24;;;;;;;0.00;0.00;;;;;;;;;;5003657;28;20227;-70
2022/11/01 12:33:53;;;;;;;0.00;0.00;;;;;;;;;;4995032;28;20196;-69
2022/11/01 12:36:25;;;;;;;0.00;0.00;;;;;;;;;;5018563;28;20319;-70
2022/11/01 12:38:56;;;;;;;0.00;0.00;;;;;;;;;;4992777;28;20608;-71
2022/11/01 12:41:28;;;;;;;0.00;0.00;;;;;;;;;;4978122;28;20312;-69
2022/11/01 12:44:04;;;;;;;0.00;0.00;;;;;;;;;;5002596;28;20221;-70
2022/11/01 12:46:35;;;;;;;0.00;0.00;;;;;;;;;;5002614;28;20215;-70
2022/11/01 12:49:07;;;;;;;0.00;0.00;;;;;;;;;;4978863;28;20247;-70
2022/11/01 12:51:38;;;;;;;0.00;0.00;;;;;;;;;;4978593;28;20231;-70
2022/11/01 12:54:09;;;;;;;0.00;0.00;;;;;;;;;;5003830;28;20251;-70
2022/11/01 12:56:39;;;;;;;0.00;0.00;;;;;;;;;;5000630;28;20280;-69
2022/11/01 12:59:09;;;;;;;0.00;0.00;;;;;;;;;;5002693;28;20295;-69
2022/11/01 13:01:41;;;;;;;0.00;0.00;;;;;;;;;;5001894;28;20256;-70
2022/11/01 13:04:15;;;;;;;0.00;0.00;;;;;;;;;;4979113;28;20224;-70
2022/11/01 13:07:00;;;;;;;0.00;0.00;;;;;;;;;;4977311;28;20207;-71
2022/11/01 13:09:31;;;;;;;0.00;0.00;;;;;;;;;;4980895;28;20363;-70
2022/11/01 13:12:06;;;;;;;0.00;0.00;;;;;;;;;;5004139;28;20231;-70
2022/11/01 13:14:41;;;;;;;0.00;0.00;;;;;;;;;;4974433;28;20205;-70
2022/11/01 13:17:13;;;;;;;0.00;0.00;;;;;;;;;;4974733;28;20314;-71
2022/11/01 13:19:44;;;;;;;0.00;0.00;;;;;;;;;;4973871;28;20232;-71
2022/11/01 13:22:16;;;;;;;0.00;0.00;;;;;;;;;;4980915;28;20307;-72
2022/11/01 13:24:46;;;;;;;0.00;0.00;;;;;;;;;;5000000;28;20281;-71
2022/11/01 13:27:18;;;;;;;0.00;0.00;;;;;;;;;;5002315;28;20228;-71
2022/11/01 13:29:50;;;;;;;0.00;0.00;;;;;;;;;;4978777;28;20193;-71
2022/11/01 13:32:22;;;;;;;0.00;0.00;;;;;;;;;;4997923;28;20255;-71
2022/11/01 13:34:55;;;;;;;0.00;0.00;;;;;;;;;;4997334;28;20213;-71
2022/11/01 13:37:28;;;;;;;0.00;0.00;;;;;;;;;;4980059;28;20208;-71
2022/11/01 13:40:01;;;;;;;0.00;0.00;;;;;;;;;;4979564;28;20266;-71
2022/11/01 13:42:37;;;;;;;0.00;0.00;;;;;;;;;;4976855;28;20224;-70
2022/11/01 13:45:20;;;;;;;0.00;0.00;;;;;;;;;;5002577;28;20199;-69
2022/11/01 13:47:53;;;;;;;0.00;0.00;;;;;;;;;;4977610;28;20206;-70
2022/11/01 13:50:33;;;;;;;0.00;0.00;;;;;;;;;;5004501;28;20193;-70
2022/11/01 13:53:05;;;;;;;0.00;0.00;;;;;;;;;;4977922;28;20221;-70
2022/11/01 13:55:37;;;;;;;0.00;0.00;;;;;;;;;;4977368;28;20208;-70
2022/11/01 13:58:08;;;;;;;0.00;0.00;;;;;;;;;;4978005;28;20233;-70
2022/11/01 14:00:38;;;;;;;0.00;0.00;;;;;;;;;;4978255;28;20252;-72
2022/11/01 14:03:31;;;;;;;0.00;0.00;;;;;;;;;;5003045;28;20230;-71
2022/11/01 14:06:17;;;;;;;0.00;0.00;;;;;;;;;;4972192;28;20263;-70
2022/11/01 14:08:47;;;;;;;0.00;0.00;;;;;;;;;;4999022;28;20729;-71
2022/11/01 14:11:34;;;;;;;0.00;0.00;;;;;;;;;;5001341;28;20220;-70
2022/11/01 14:14:24;;;;;;;0.00;0.00;;;;;;;;;;4976496;28;20212;-70
2022/11/01 14:16:53;;;;;;;0.00;0.00;;;;;;;;;;4975851;28;20608;-71
2022/11/01 14:19:21;;;;;;;0.00;0.00;;;;;;;;;;4999478;28;20232;-70
2022/11/01 14:21:55;;;;;;;0.00;0.00;;;;;;;;;;4977384;28;20224;-71
2022/11/01 14:24:25;;;;;;;0.00;0.00;;;;;;;;;;4981366;28;20200;-70
2022/11/01 14:27:19;;;;;;;0.00;0.00;;;;;;;;;;5000202;28;20205;-70
2022/11/01 14:29:51;;;;;;;0.00;0.00;;;;;;;;;;5002779;28;20207;-69
2022/11/01 14:32:21;;;;;;;0.00;0.00;;;;;;;;;;4977770;28;20339;-70
2022/11/01 14:34:56;;;;;;;0.00;0.00;;;;;;;;;;4976629;28;20205;-68
2022/11/01 14:37:26;;;;;;;0.00;0.00;;;;;;;;;;4979392;28;20209;-69
2022/11/01 14:39:59;;;;;;;0.00;0.00;;;;;;;;;;4981455;28;20320;-70
2022/11/01 14:42:29;;;;;;;0.00;0.00;;;;;;;;;;5001722;28;20259;-70
2022/11/01 14:45:00;;;;;;;0.00;0.00;;;;;;;;;;5002441;28;20208;-71
2022/11/01 14:47:32;;;;;;;0.00;0.00;;;;;;;;;;4976591;28;20200;-70
2022/11/01 14:50:02;;;;;;;0.00;0.00;;;;;;;;;;5001223;28;20216;-71
2022/11/01 14:52:34;;;;;;;0.00;0.00;;;;;;;;;;4978512;28;20228;-70
2022/11/01 14:55:06;;;;;;;0.00;0.00;;;;;;;;;;5006616;28;20284;-69
2022/11/01 14:57:35;;;;;;;0.00;0.00;;;;;;;;;;5005234;28;20200;-71
2022/11/01 15:00:18;;;;;;;0.00;0.00;;;;;;;;;;5005333;28;20224;-70
2022/11/01 15:02:48;;;;;;;0.00;0.00;;;;;;;;;;4976645;28;20235;-70
2022/11/01 15:05:16;;;;;;;0.00;0.00;;;;;;;;;;4980616;28;20232;-70